Selviria, Brazil
Current Conditions -  °F | °C
As of 1:00 PM on Sunday 21 Dec 2014 (Local Time) from SBDN Reporting Station
Broken Clouds Broken Clouds  
Wind Chill: 86°   Ceiling: 10000
Heat Index: 90°   Visibility: 6mi
Dew Point: 70°   Wind: 12mph
Humidity: 58%   Direction: 330°NNW
Pressure: 29.83"   Gusts: NA
Location:  20.37°S, 51.42°W
Report Text: SBDN 211600Z 33010KT 9999 SCT030 BKN100 30/21 Q1010
Loading
Personal Weather Stations






























Interactive Weather Map New forecast layout! Learn more

10-Day Weather Forecast

Advertisements
Track Severe Weather on mobile